createdAt,value
2024-02-08T00:00:22.565Z,19.75
2024-02-08T00:02:50.100Z,24.95
2024-02-08T00:05:17.565Z,21.65
2024-02-08T00:07:45.021Z,15.70
2024-02-08T00:10:12.612Z,19.63
2024-02-08T00:12:41.283Z,25.90
2024-02-08T00:15:09.143Z,19.00
2024-02-08T00:17:36.957Z,13.90
2024-02-08T00:20:04.633Z,18.65
2024-02-08T00:22:32.146Z,17.63
2024-02-08T00:24:59.482Z,34.35
2024-02-08T00:27:27.129Z,27.90
2024-02-08T00:29:54.532Z,19.20
2024-02-08T00:32:22.011Z,27.60
2024-02-08T00:34:49.535Z,20.67
2024-02-08T00:37:16.983Z,14.82
2024-02-08T00:39:44.399Z,20.30
2024-02-08T00:42:11.967Z,15.35
2024-02-08T00:44:42.960Z,12.07
2024-02-08T00:47:11.442Z,23.73
2024-02-08T00:49:39.897Z,14.27
2024-02-08T00:52:08.465Z,19.83
2024-02-08T00:54:39.564Z,16.88
2024-02-08T00:57:07.361Z,8.98
2024-02-08T00:59:36.334Z,13.30
2024-02-08T01:02:03.863Z,15.80
2024-02-08T01:04:31.405Z,12.68
2024-02-08T01:06:58.898Z,9.35
2024-02-08T01:09:29.557Z,16.80
2024-02-08T01:11:56.993Z,8.38
2024-02-08T01:14:24.525Z,15.35
2024-02-08T01:16:53.512Z,14.48
2024-02-08T01:19:21.701Z,8.85
2024-02-08T01:21:58.618Z,9.63
2024-02-08T01:24:26.420Z,11.02
2024-02-08T01:26:53.885Z,19.35
2024-02-08T01:29:21.320Z,12.60
2024-02-08T01:31:48.675Z,16.13
2024-02-08T01:34:16.163Z,10.23
2024-02-08T01:36:43.594Z,13.70
2024-02-08T01:39:11.152Z,24.17
2024-02-08T01:41:38.689Z,12.93
2024-02-08T01:44:07.608Z,14.70
2024-02-08T01:46:36.002Z,16.42
2024-02-08T01:49:03.602Z,13.82
2024-02-08T01:51:31.148Z,15.73
2024-02-08T01:53:58.646Z,15.13
2024-02-08T01:56:26.071Z,24.58
2024-02-08T01:58:53.698Z,17.48
2024-02-08T02:01:21.322Z,18.25
2024-02-08T02:03:48.773Z,15.25
2024-02-08T02:06:16.373Z,20.08
2024-02-08T02:08:44.523Z,15.50
2024-02-08T02:11:17.282Z,16.77
2024-02-08T02:13:47.728Z,16.00
2024-02-08T02:16:16.811Z,17.48
2024-02-08T02:18:44.347Z,12.07
2024-02-08T02:21:11.745Z,13.98
2024-02-08T02:23:39.221Z,12.25
2024-02-08T02:26:07.628Z,16.50
2024-02-08T02:28:36.695Z,21.05
2024-02-08T02:31:04.269Z,18.40
2024-02-08T02:33:31.901Z,21.80
2024-02-08T02:35:59.486Z,26.25
2024-02-08T02:38:27.005Z,18.05
2024-02-08T02:40:54.458Z,22.00
2024-02-08T02:43:22.438Z,22.92
2024-02-08T02:45:49.812Z,22.33
2024-02-08T02:48:17.315Z,20.45
2024-02-08T02:50:44.854Z,19.35
2024-02-08T02:53:12.472Z,15.98
2024-02-08T02:55:40.275Z,23.15
2024-02-08T02:58:08.064Z,15.77
2024-02-08T03:00:36.241Z,10.60
2024-02-08T03:03:05.587Z,14.00
2024-02-08T03:05:33.118Z,12.77
2024-02-08T03:08:00.670Z,16.73
2024-02-08T03:10:28.365Z,14.95
2024-02-08T03:12:55.899Z,10.90
2024-02-08T03:15:23.461Z,12.48
2024-02-08T03:17:51.064Z,8.30
2024-02-08T03:20:18.988Z,10.88
2024-02-08T03:22:46.593Z,9.52
2024-02-08T03:25:14.128Z,14.13
2024-02-08T03:27:42.591Z,18.85
2024-02-08T03:30:14.193Z,19.95
2024-02-08T03:32:41.701Z,19.52
2024-02-08T03:35:09.342Z,16.67
2024-02-08T03:37:36.817Z,18.35
2024-02-08T03:40:04.588Z,16.92
2024-02-08T03:42:31.980Z,14.43
2024-02-08T03:44:59.444Z,13.88
2024-02-08T03:47:26.829Z,17.13
2024-02-08T03:49:54.368Z,13.50
2024-02-08T03:52:21.789Z,15.07
2024-02-08T03:54:49.264Z,20.40
2024-02-08T03:57:16.713Z,15.20
2024-02-08T03:59:44.176Z,21.35
2024-02-08T04:02:11.832Z,12.13
2024-02-08T04:04:44.573Z,17.70
2024-02-08T04:07:12.006Z,16.55
2024-02-08T04:09:39.384Z,13.38
2024-02-08T04:12:07.237Z,14.63
2024-02-08T04:14:34.631Z,12.70
2024-02-08T04:17:02.146Z,20.35
2024-02-08T04:19:29.713Z,26.50
2024-02-08T04:21:57.445Z,33.33
2024-02-08T04:24:24.939Z,29.95
2024-02-08T04:26:52.405Z,29.48
2024-02-08T04:29:19.811Z,30.27
2024-02-08T04:31:50.296Z,24.42
2024-02-08T04:34:17.805Z,35.15
2024-02-08T04:36:45.391Z,34.35
2024-02-08T04:39:13.011Z,28.23
2024-02-08T04:41:42.439Z,33.40
2024-02-08T04:44:10.187Z,28.98
2024-02-08T04:46:37.868Z,23.48
2024-02-08T04:49:05.692Z,24.63
2024-02-08T04:51:33.258Z,23.42
2024-02-08T04:54:00.731Z,19.23
2024-02-08T04:56:28.152Z,41.67
2024-02-08T04:59:19.362Z,46.38
2024-02-08T05:01:43.622Z,40.25
2024-02-08T05:04:11.017Z,28.35
2024-02-08T05:06:38.673Z,25.58
2024-02-08T05:09:06.205Z,22.40
2024-02-08T05:11:33.617Z,19.67
2024-02-08T05:14:01.029Z,15.70
2024-02-08T05:16:30.361Z,26.73
2024-02-08T05:18:58.118Z,27.98
2024-02-08T05:21:25.475Z,23.05
2024-02-08T05:23:52.994Z,31.48
2024-02-08T05:26:20.636Z,19.83
2024-02-08T05:28:48.543Z,27.05
2024-02-08T05:31:19.169Z,23.88
2024-02-08T05:33:47.092Z,28.35
2024-02-08T05:36:14.934Z,30.25
2024-02-08T05:38:42.631Z,23.95
2024-02-08T05:41:11.731Z,16.10
2024-02-08T05:43:39.553Z,25.33
2024-02-08T05:46:07.246Z,22.63
2024-02-08T05:48:34.814Z,27.10
2024-02-08T05:51:02.299Z,26.17
2024-02-08T05:53:29.862Z,18.92
2024-02-08T05:55:57.330Z,20.88
2024-02-08T05:58:24.883Z,26.77
2024-02-08T06:00:52.456Z,21.98
2024-02-08T06:03:22.701Z,18.15
2024-02-08T06:05:50.102Z,24.08
2024-02-08T06:08:17.518Z,18.67
2024-02-08T06:10:45.041Z,22.05
2024-02-08T06:13:13.530Z,23.35
2024-02-08T06:15:42.515Z,12.52
2024-02-08T06:18:13.256Z,19.45
2024-02-08T06:20:40.915Z,13.65
2024-02-08T06:23:08.306Z,25.95
2024-02-08T06:25:35.900Z,13.02
2024-02-08T06:28:03.367Z,13.98
2024-02-08T06:30:30.773Z,15.55
2024-02-08T06:32:58.294Z,15.45
2024-02-08T06:35:25.724Z,16.63
2024-02-08T06:37:53.098Z,15.90
2024-02-08T06:40:20.662Z,13.50
2024-02-08T06:42:48.097Z,12.93
2024-02-08T06:45:15.676Z,20.08
2024-02-08T06:47:43.277Z,24.73
2024-02-08T06:50:10.756Z,22.73
2024-02-08T06:52:38.399Z,21.80
2024-02-08T06:55:06.016Z,18.02
2024-02-08T06:57:33.363Z,22.05
2024-02-08T07:00:00.765Z,24.48
2024-02-08T07:02:28.253Z,22.90
2024-02-08T07:04:55.881Z,16.38
2024-02-08T07:07:23.444Z,22.92
2024-02-08T07:09:50.936Z,19.75
2024-02-08T07:12:18.314Z,12.65
2024-02-08T07:14:45.757Z,15.85
2024-02-08T07:17:13.346Z,22.98
2024-02-08T07:19:40.810Z,18.73
2024-02-08T07:22:08.351Z,20.27
2024-02-08T07:24:35.787Z,21.73
2024-02-08T07:27:03.473Z,20.00
2024-02-08T07:29:31.051Z,15.13
2024-02-08T07:31:58.500Z,25.45
2024-02-08T07:34:26.063Z,26.73
2024-02-08T07:36:53.688Z,16.65
2024-02-08T07:39:21.213Z,14.90
2024-02-08T07:41:48.812Z,17.02
2024-02-08T07:44:16.215Z,20.23
2024-02-08T07:46:44.818Z,21.65
2024-02-08T07:49:12.207Z,29.63
2024-02-08T07:51:39.708Z,26.52
2024-02-08T07:54:07.266Z,18.65
2024-02-08T07:56:34.802Z,18.92
2024-02-08T07:59:02.397Z,15.73
2024-02-08T08:01:29.837Z,23.73
2024-02-08T08:03:57.894Z,20.73
2024-02-08T08:06:25.689Z,15.48
2024-02-08T08:08:53.107Z,17.50
2024-02-08T08:11:20.501Z,14.07
2024-02-08T08:13:47.980Z,16.33
2024-02-08T08:16:15.518Z,21.77
2024-02-08T08:18:42.968Z,25.08
2024-02-08T08:21:10.359Z,29.80
2024-02-08T08:23:37.728Z,20.30
2024-02-08T08:26:05.373Z,23.48
2024-02-08T08:28:33.094Z,34.08
2024-02-08T08:31:00.569Z,19.95
2024-02-08T08:33:28.270Z,20.60
2024-02-08T08:35:56.987Z,25.08
2024-02-08T08:38:25.306Z,21.88
2024-02-08T08:40:53.537Z,30.98
2024-02-08T08:43:21.909Z,24.55
2024-02-08T08:45:57.430Z,22.33
2024-02-08T08:48:25.268Z,23.50
2024-02-08T08:50:52.823Z,26.17
2024-02-08T08:53:20.183Z,23.23
2024-02-08T08:55:48.934Z,27.17
2024-02-08T08:58:16.523Z,20.42
2024-02-08T09:00:44.357Z,29.27
2024-02-08T09:03:11.948Z,12.70
2024-02-08T09:05:39.422Z,20.02
2024-02-08T09:08:07.233Z,14.65
2024-02-08T09:10:34.850Z,9.93
2024-02-08T09:13:03.480Z,19.60
2024-02-08T09:15:30.876Z,13.13
2024-02-08T09:18:00.154Z,13.35
2024-02-08T09:20:28.008Z,19.25
2024-02-08T09:22:57.059Z,15.13
2024-02-08T09:25:35.084Z,14.25
2024-02-08T09:28:07.734Z,20.38
2024-02-08T09:30:35.721Z,10.82
2024-02-08T09:33:03.275Z,16.67
2024-02-08T09:35:30.767Z,16.40
2024-02-08T09:37:58.289Z,17.30
2024-02-08T09:40:25.764Z,16.25
2024-02-08T09:42:53.652Z,11.13
2024-02-08T09:45:26.748Z,14.95
2024-02-08T09:47:55.174Z,10.65
2024-02-08T09:50:34.721Z,13.35
2024-02-08T09:53:10.964Z,7.60
2024-02-08T09:55:38.391Z,12.23
2024-02-08T09:58:06.553Z,8.40
2024-02-08T10:00:36.061Z,13.60
2024-02-08T10:03:03.830Z,15.48
2024-02-08T10:05:34.642Z,12.35
2024-02-08T10:08:02.040Z,18.98
2024-02-08T10:10:30.130Z,22.33
2024-02-08T10:12:57.613Z,13.00
2024-02-08T10:15:36.801Z,12.07
2024-02-08T10:18:05.142Z,15.30
2024-02-08T10:20:32.587Z,7.57
2024-02-08T10:23:00.443Z,11.93
2024-02-08T10:25:31.691Z,14.35
2024-02-08T10:27:59.281Z,6.03
2024-02-08T10:30:26.770Z,9.20
2024-02-08T10:32:54.458Z,13.52
2024-02-08T10:35:22.328Z,11.93
2024-02-08T10:37:53.825Z,10.60
2024-02-08T10:40:22.616Z,14.75
2024-02-08T10:42:53.271Z,13.10
2024-02-08T10:45:23.841Z,8.40
2024-02-08T10:47:56.702Z,8.32
2024-02-08T10:50:24.896Z,15.02
2024-02-08T10:52:52.572Z,15.30
2024-02-08T10:55:20.489Z,19.13
2024-02-08T10:57:48.835Z,12.07
2024-02-08T11:00:18.055Z,9.23
2024-02-08T11:02:45.557Z,10.75
2024-02-08T11:05:13.151Z,8.95
2024-02-08T11:07:43.065Z,16.60
2024-02-08T11:10:14.391Z,9.50
2024-02-08T11:12:42.250Z,11.23
2024-02-08T11:15:22.728Z,10.98
2024-02-08T11:17:53.122Z,6.57
2024-02-08T11:20:28.082Z,9.30
2024-02-08T11:23:07.392Z,9.55
2024-02-08T11:25:35.414Z,11.52
2024-02-08T11:28:25.648Z,7.38
2024-02-08T11:30:55.985Z,10.55
2024-02-08T11:33:34.588Z,12.65
2024-02-08T11:36:04.135Z,11.82
2024-02-08T11:38:31.706Z,6.40
2024-02-08T11:41:11.328Z,12.23
2024-02-08T11:43:39.742Z,12.90
2024-02-08T11:46:15.664Z,14.65
2024-02-08T11:48:43.458Z,9.32
2024-02-08T11:51:12.726Z,8.10
2024-02-08T11:56:09.750Z,11.60
2024-02-08T12:01:09.163Z,6.35
2024-02-08T12:03:36.974Z,12.70
2024-02-08T12:06:04.640Z,10.32
2024-02-08T12:08:37.753Z,11.65
2024-02-08T12:11:11.392Z,8.98
2024-02-08T12:13:39.134Z,13.30
2024-02-08T12:16:07.048Z,8.35
2024-02-08T12:18:34.518Z,5.70
2024-02-08T12:21:02.040Z,11.27
2024-02-08T12:23:33.337Z,10.88
2024-02-08T12:26:08.969Z,11.15
2024-02-08T12:28:40.538Z,10.20
2024-02-08T12:31:11.153Z,8.40
2024-02-08T12:33:39.176Z,13.80
2024-02-08T12:36:07.150Z,10.75
2024-02-08T12:38:36.486Z,8.13
2024-02-08T12:41:06.006Z,15.20
2024-02-08T12:43:34.192Z,7.00
2024-02-08T12:46:01.801Z,8.68
2024-02-08T12:48:29.451Z,9.50
2024-02-08T12:50:57.333Z,19.27
2024-02-08T12:53:24.991Z,12.18
2024-02-08T12:55:52.384Z,11.30
2024-02-08T12:58:20.400Z,10.43
2024-02-08T13:01:00.730Z,16.80
2024-02-08T13:03:28.407Z,16.10
2024-02-08T13:05:56.072Z,17.42
2024-02-08T13:08:25.144Z,11.13
2024-02-08T13:10:56.688Z,15.60
2024-02-08T13:13:28.198Z,11.55
2024-02-08T13:15:57.112Z,15.48
2024-02-08T13:18:24.757Z,14.60
2024-02-08T13:20:52.178Z,15.85
2024-02-08T13:23:19.629Z,10.43
2024-02-08T13:25:47.228Z,16.33
2024-02-08T13:28:14.784Z,9.10
2024-02-08T13:30:42.212Z,9.38
2024-02-08T13:33:09.816Z,11.85
2024-02-08T13:35:37.744Z,6.68
2024-02-08T13:38:05.369Z,23.48
2024-02-08T13:40:33.037Z,9.85
2024-02-08T13:43:01.098Z,11.57
2024-02-08T13:45:29.813Z,12.20
2024-02-08T13:48:00.034Z,12.70
2024-02-08T13:52:56.097Z,13.85
2024-02-08T13:55:24.589Z,13.52
2024-02-08T13:57:54.469Z,15.70
2024-02-08T14:00:24.973Z,12.07
2024-02-08T14:02:52.830Z,17.55
2024-02-08T14:05:21.621Z,14.75
2024-02-08T14:07:49.114Z,15.60
2024-02-08T14:10:34.727Z,15.75
2024-02-08T14:13:02.695Z,15.63
2024-02-08T14:15:30.748Z,9.85
2024-02-08T14:18:00.286Z,15.98
2024-02-08T14:20:27.816Z,11.05
2024-02-08T14:22:55.464Z,17.33
2024-02-08T14:25:23.075Z,8.85
2024-02-08T14:27:50.712Z,10.38
2024-02-08T14:30:18.204Z,16.48
2024-02-08T14:32:45.718Z,22.67
2024-02-08T14:35:13.195Z,11.15
2024-02-08T14:37:41.159Z,22.45
2024-02-08T14:40:09.257Z,13.40
2024-02-08T14:42:37.026Z,13.77
2024-02-08T14:45:05.215Z,9.40
2024-02-08T14:47:32.833Z,18.35
2024-02-08T14:50:01.729Z,10.73
2024-02-08T14:52:31.745Z,15.05
2024-02-08T14:55:00.008Z,16.58
2024-02-08T14:57:28.644Z,11.38
2024-02-08T14:59:56.105Z,14.50
2024-02-08T15:02:24.737Z,15.48
2024-02-08T15:04:53.594Z,10.95
2024-02-08T15:07:22.168Z,9.27
2024-02-08T15:09:49.732Z,16.52
2024-02-08T15:12:17.347Z,12.63
2024-02-08T15:14:45.194Z,14.32
2024-02-08T15:17:13.006Z,18.15
2024-02-08T15:19:40.797Z,15.00
2024-02-08T15:22:08.351Z,16.35
2024-02-08T15:24:36.434Z,18.10
2024-02-08T15:27:04.156Z,16.33
2024-02-08T15:29:33.049Z,16.33
2024-02-08T15:32:02.259Z,7.32
2024-02-08T15:34:30.142Z,29.60
2024-02-08T15:36:57.716Z,16.75
2024-02-08T15:39:25.368Z,25.35
2024-02-08T15:41:53.051Z,24.00
2024-02-08T15:44:21.253Z,18.35
2024-02-08T15:46:48.801Z,22.08
2024-02-08T15:49:16.412Z,21.85
2024-02-08T15:51:44.247Z,20.20
2024-02-08T15:54:11.709Z,26.88
2024-02-08T15:56:39.340Z,24.00
2024-02-08T15:59:07.120Z,20.27
2024-02-08T16:01:34.753Z,16.77
2024-02-08T16:04:02.392Z,14.50
2024-02-08T16:06:30.066Z,22.70
2024-02-08T16:08:58.426Z,21.02
2024-02-08T16:11:27.339Z,17.30
2024-02-08T16:13:55.076Z,16.20
2024-02-08T16:16:23.160Z,17.70
2024-02-08T16:18:51.088Z,26.95
2024-02-08T16:21:18.713Z,23.42
2024-02-08T16:23:46.188Z,19.55
2024-02-08T16:26:14.269Z,24.05
2024-02-08T16:28:41.754Z,20.23
2024-02-08T16:31:11.560Z,17.73
2024-02-08T16:33:41.694Z,19.40
2024-02-08T16:36:12.297Z,22.48
2024-02-08T16:38:39.678Z,16.60
2024-02-08T16:41:07.573Z,18.17
2024-02-08T16:43:35.097Z,20.08
2024-02-08T16:46:02.625Z,14.93
2024-02-08T16:48:30.068Z,23.15
2024-02-08T16:50:57.650Z,19.42
2024-02-08T16:53:25.101Z,33.28
2024-02-08T16:55:58.462Z,21.52
2024-02-08T16:58:29.191Z,19.65
2024-02-08T17:01:00.113Z,21.88
2024-02-08T17:03:27.538Z,15.65
2024-02-08T17:05:55.532Z,12.80
2024-02-08T17:08:23.568Z,24.42
2024-02-08T17:10:52.228Z,33.60
2024-02-08T17:13:19.650Z,26.98
2024-02-08T17:15:47.331Z,23.35
2024-02-08T17:18:14.826Z,27.52
2024-02-08T17:20:43.521Z,20.30
2024-02-08T17:23:11.975Z,13.75
2024-02-08T17:25:39.406Z,21.10
2024-02-08T17:28:07.003Z,16.55
2024-02-08T17:30:37.316Z,21.00
2024-02-08T17:33:05.723Z,25.00
2024-02-08T17:35:33.380Z,17.35
2024-02-08T17:38:01.701Z,11.98
2024-02-08T17:40:29.340Z,22.17
2024-02-08T17:42:58.868Z,13.88
2024-02-08T17:45:30.381Z,12.50
2024-02-08T17:47:57.821Z,18.70
2024-02-08T17:50:25.355Z,13.18
2024-02-08T17:52:53.372Z,17.60
2024-02-08T17:55:21.004Z,19.52
2024-02-08T17:57:49.107Z,9.68
2024-02-08T18:00:16.833Z,16.00
2024-02-08T18:02:44.308Z,19.80
2024-02-08T18:05:11.699Z,20.55
2024-02-08T18:07:39.289Z,22.88
2024-02-08T18:10:07.445Z,15.68
2024-02-08T18:12:35.141Z,20.10
2024-02-08T18:15:03.560Z,28.25
2024-02-08T18:17:31.250Z,25.23
2024-02-08T18:19:58.886Z,16.58
2024-02-08T18:22:26.391Z,19.15
2024-02-08T18:24:54.004Z,26.42
2024-02-08T18:27:21.433Z,25.88
2024-02-08T18:29:49.650Z,21.98
2024-02-08T18:32:17.121Z,22.83
2024-02-08T18:34:48.072Z,19.27
2024-02-08T18:37:19.005Z,22.05
2024-02-08T18:39:46.963Z,10.75
2024-02-08T18:42:14.545Z,14.13
2024-02-08T18:44:42.096Z,24.60
2024-02-08T18:47:09.503Z,17.13
2024-02-08T18:49:37.201Z,20.10
2024-02-08T18:52:05.055Z,17.30
2024-02-08T18:54:32.477Z,30.33
2024-02-08T18:56:59.996Z,15.30
2024-02-08T18:59:27.468Z,18.25
2024-02-08T19:02:01.294Z,22.48
2024-02-08T19:04:33.386Z,10.20
2024-02-08T19:07:01.247Z,10.88
2024-02-08T19:09:29.058Z,19.95
2024-02-08T19:11:56.567Z,24.65
2024-02-08T19:14:24.206Z,22.98
2024-02-08T19:16:52.219Z,10.32
2024-02-08T19:19:20.192Z,28.30
2024-02-08T19:21:47.673Z,27.17
2024-02-08T19:24:15.065Z,20.95
2024-02-08T19:26:42.644Z,13.90
2024-02-08T19:29:10.998Z,17.30
2024-02-08T19:31:45.526Z,29.75
2024-02-08T19:34:13.645Z,19.30
2024-02-08T19:36:47.800Z,31.13
2024-02-08T19:39:15.248Z,22.95
2024-02-08T19:41:42.739Z,25.77
2024-02-08T19:44:10.275Z,25.55
2024-02-08T19:46:39.818Z,20.58
2024-02-08T19:49:09.193Z,26.35
2024-02-08T19:51:36.656Z,21.80
2024-02-08T19:54:04.216Z,28.40
2024-02-08T19:56:31.742Z,16.42
2024-02-08T19:58:59.492Z,33.35
2024-02-08T20:01:27.217Z,29.83
2024-02-08T20:03:55.040Z,27.48
2024-02-08T20:06:22.835Z,20.45
2024-02-08T20:08:51.435Z,31.30
2024-02-08T20:11:18.968Z,26.80
2024-02-08T20:13:46.337Z,30.45
2024-02-08T20:16:27.110Z,34.28
2024-02-08T20:18:56.217Z,23.58
2024-02-08T20:21:23.603Z,28.55
2024-02-08T20:23:51.068Z,23.63
2024-02-08T20:26:22.586Z,29.38
2024-02-08T20:28:50.006Z,29.60
2024-02-08T20:31:17.369Z,25.55
2024-02-08T20:33:45.028Z,30.80
2024-02-08T20:36:12.474Z,27.65
2024-02-08T20:38:39.981Z,25.35
2024-02-08T20:41:09.042Z,34.53
2024-02-08T20:43:36.605Z,28.98
2024-02-08T20:46:04.544Z,33.13
2024-02-08T20:48:32.214Z,35.75
2024-02-08T20:50:59.568Z,35.10
2024-02-08T20:53:27.213Z,33.28
2024-02-08T20:55:54.678Z,33.63
2024-02-08T20:58:22.143Z,37.00
2024-02-08T21:00:49.647Z,22.63
2024-02-08T21:03:17.592Z,20.42
2024-02-08T21:05:46.711Z,24.30
2024-02-08T21:08:14.148Z,31.77
2024-02-08T21:10:42.119Z,32.15
2024-02-08T21:13:10.669Z,28.50
2024-02-08T21:15:39.396Z,28.58
2024-02-08T21:18:07.668Z,33.75
2024-02-08T21:20:35.165Z,28.80
2024-02-08T21:23:02.973Z,20.50
2024-02-08T21:25:30.412Z,14.45
2024-02-08T21:27:58.016Z,33.78
2024-02-08T21:30:25.394Z,27.98
2024-02-08T21:32:52.838Z,26.65
2024-02-08T21:35:20.346Z,37.13
2024-02-08T21:37:47.759Z,22.75
2024-02-08T21:40:16.196Z,27.05
2024-02-08T21:42:43.660Z,29.77
2024-02-08T21:45:11.112Z,24.20
2024-02-08T21:47:38.581Z,34.05
2024-02-08T21:50:06.773Z,26.88
2024-02-08T21:52:38.539Z,37.20
2024-02-08T21:55:06.404Z,27.52
2024-02-08T21:57:35.026Z,30.75
2024-02-08T22:00:02.974Z,16.35
2024-02-08T22:02:30.535Z,25.85
2024-02-08T22:04:58.076Z,25.08
2024-02-08T22:07:25.792Z,40.95
2024-02-08T22:09:53.407Z,32.70
2024-02-08T22:12:21.103Z,26.73
2024-02-08T22:14:48.575Z,41.92
2024-02-08T22:17:16.418Z,36.17
2024-02-08T22:19:44.777Z,31.23
2024-02-08T22:22:12.720Z,29.10
2024-02-08T22:24:41.514Z,20.15
2024-02-08T22:27:09.497Z,29.98
2024-02-08T22:29:38.794Z,33.33
2024-02-08T22:32:07.374Z,26.20
2024-02-08T22:34:35.265Z,39.72
2024-02-08T22:37:03.041Z,24.85
2024-02-08T22:39:30.690Z,29.67
2024-02-08T22:41:58.311Z,29.95
2024-02-08T22:44:25.805Z,31.98
2024-02-08T22:46:55.041Z,34.20
2024-02-08T22:49:23.473Z,29.73
2024-02-08T22:51:51.447Z,23.85
2024-02-08T22:54:19.065Z,17.88
2024-02-08T22:56:46.653Z,22.90
2024-02-08T22:59:14.324Z,25.23
2024-02-08T23:01:41.967Z,24.55
2024-02-08T23:04:10.257Z,18.20
2024-02-08T23:06:38.083Z,26.38
2024-02-08T23:09:05.661Z,24.48
2024-02-08T23:11:38.468Z,19.08
2024-02-08T23:14:06.273Z,25.40
2024-02-08T23:16:34.066Z,31.17
2024-02-08T23:19:02.836Z,24.77
2024-02-08T23:21:32.523Z,15.68
2024-02-08T23:24:00.207Z,20.77
2024-02-08T23:26:27.646Z,19.23
2024-02-08T23:28:55.302Z,16.42
2024-02-08T23:31:22.791Z,20.20
2024-02-08T23:33:50.380Z,14.57
2024-02-08T23:36:17.951Z,16.05
2024-02-08T23:38:45.470Z,18.98
2024-02-08T23:41:12.992Z,28.77
2024-02-08T23:43:40.908Z,19.50
2024-02-08T23:46:08.702Z,20.58
2024-02-08T23:48:37.159Z,20.88
2024-02-08T23:51:05.519Z,25.27
2024-02-08T23:53:33.533Z,21.00
2024-02-08T23:56:01.380Z,15.50
2024-02-08T23:58:29.649Z,17.88
